sensor_id;sensor_type;location;lat;lon;timestamp;temperature;humidity
17284;DHT22;8760;52.248;20.952;2022-09-09T00:02:18;13.20;1.00
17284;DHT22;8760;52.248;20.952;2022-09-09T00:04:51;13.20;1.00
17284;DHT22;8760;52.248;20.952;2022-09-09T00:07:21;13.20;1.00
17284;DHT22;8760;52.248;20.952;2022-09-09T00:09:57;13.20;39.30
17284;DHT22;8760;52.248;20.952;2022-09-09T00:12:33;13.10;51.80
17284;DHT22;8760;52.248;20.952;2022-09-09T00:15:05;13.00;24.20
17284;DHT22;8760;52.248;20.952;2022-09-09T00:17:39;12.90;1.00
17284;DHT22;8760;52.248;20.952;2022-09-09T00:20:13;12.90;50.30
17284;DHT22;8760;52.248;20.952;2022-09-09T00:22:45;12.80;80.20
17284;DHT22;8760;52.248;20.952;2022-09-09T00:25:19;12.80;80.10
17284;DHT22;8760;52.248;20.952;2022-09-09T00:27:49;12.70;99.90
17284;DHT22;8760;52.248;20.952;2022-09-09T00:30:18;12.70;99.90
17284;DHT22;8760;52.248;20.952;2022-09-09T00:32:52;12.60;88.40
17284;DHT22;8760;52.248;20.952;2022-09-09T00:35:24;12.60;96.80
17284;DHT22;8760;52.248;20.952;2022-09-09T00:37:53;12.60;99.90
17284;DHT22;8760;52.248;20.952;2022-09-09T00:40:24;12.50;99.90
17284;DHT22;8760;52.248;20.952;2022-09-09T00:43:12;12.40;99.90
17284;DHT22;8760;52.248;20.952;2022-09-09T00:45:56;12.30;99.90
17284;DHT22;8760;52.248;20.952;2022-09-09T00:48:34;12.40;99.90
17284;DHT22;8760;52.248;20.952;2022-09-09T00:51:11;12.30;99.90
17284;DHT22;8760;52.248;20.952;2022-09-09T00:54:08;12.40;99.90
17284;DHT22;8760;52.248;20.952;2022-09-09T00:56:45;12.40;99.90
17284;DHT22;8760;52.248;20.952;2022-09-09T00:59:20;12.30;99.90
17284;DHT22;8760;52.248;20.952;2022-09-09T01:01:50;12.30;99.90
17284;DHT22;8760;52.248;20.952;2022-09-09T01:04:23;12.30;99.90
17284;DHT22;8760;52.248;20.952;2022-09-09T01:07:04;12.20;99.90
17284;DHT22;8760;52.248;20.952;2022-09-09T01:09:42;12.20;99.90
17284;DHT22;8760;52.248;20.952;2022-09-09T01:12:15;12.20;99.90
17284;DHT22;8760;52.248;20.952;2022-09-09T01:14:47;12.30;99.90
17284;DHT22;8760;52.248;20.952;2022-09-09T01:17:17;12.20;99.90
17284;DHT22;8760;52.248;20.952;2022-09-09T01:19:55;12.30;99.90
17284;DHT22;8760;52.248;20.952;2022-09-09T01:22:33;12.20;99.90
17284;DHT22;8760;52.248;20.952;2022-09-09T01:25:20;12.20;99.90
17284;DHT22;8760;52.248;20.952;2022-09-09T01:27:51;12.20;99.90
17284;DHT22;8760;52.248;20.952;2022-09-09T01:30:20;12.20;99.90
17284;DHT22;8760;52.248;20.952;2022-09-09T01:32:49;12.10;99.90
17284;DHT22;8760;52.248;20.952;2022-09-09T01:35:29;12.10;99.90
17284;DHT22;8760;52.248;20.952;2022-09-09T01:37:56;12.10;99.90
17284;DHT22;8760;52.248;20.952;2022-09-09T01:40:24;12.20;99.90
17284;DHT22;8760;52.248;20.952;2022-09-09T01:42:53;12.20;99.90
17284;DHT22;8760;52.248;20.952;2022-09-09T01:45:20;12.20;99.90
17284;DHT22;8760;52.248;20.952;2022-09-09T01:47:48;12.30;99.90
17284;DHT22;8760;52.248;20.952;2022-09-09T01:50:16;12.20;99.90
17284;DHT22;8760;52.248;20.952;2022-09-09T01:52:43;12.20;99.90
17284;DHT22;8760;52.248;20.952;2022-09-09T01:55:12;12.30;99.90
17284;DHT22;8760;52.248;20.952;2022-09-09T01:57:44;12.20;99.90
17284;DHT22;8760;52.248;20.952;2022-09-09T02:00:14;12.30;99.90
17284;DHT22;8760;52.248;20.952;2022-09-09T02:02:48;12.30;99.90
17284;DHT22;8760;52.248;20.952;2022-09-09T02:05:25;12.30;99.90
17284;DHT22;8760;52.248;20.952;2022-09-09T02:08:00;12.20;99.90
17284;DHT22;8760;52.248;20.952;2022-09-09T02:10:32;12.20;99.90
17284;DHT22;8760;52.248;20.952;2022-09-09T02:13:04;12.30;99.90
17284;DHT22;8760;52.248;20.952;2022-09-09T02:15:39;12.30;99.90
17284;DHT22;8760;52.248;20.952;2022-09-09T02:18:09;12.30;99.90
17284;DHT22;8760;52.248;20.952;2022-09-09T02:20:37;12.30;99.90
17284;DHT22;8760;52.248;20.952;2022-09-09T02:23:05;12.30;99.90
17284;DHT22;8760;52.248;20.952;2022-09-09T02:25:35;12.40;99.90
17284;DHT22;8760;52.248;20.952;2022-09-09T02:28:04;12.30;99.90
17284;DHT22;8760;52.248;20.952;2022-09-09T02:30:34;12.30;99.90
17284;DHT22;8760;52.248;20.952;2022-09-09T02:33:04;12.40;99.90
17284;DHT22;8760;52.248;20.952;2022-09-09T02:35:32;12.30;99.90
17284;DHT22;8760;52.248;20.952;2022-09-09T02:38:05;12.30;99.90
17284;DHT22;8760;52.248;20.952;2022-09-09T02:40:33;12.30;99.90
17284;DHT22;8760;52.248;20.952;2022-09-09T02:42:59;12.30;99.90
17284;DHT22;8760;52.248;20.952;2022-09-09T02:45:31;12.30;99.90
17284;DHT22;8760;52.248;20.952;2022-09-09T02:48:08;12.30;99.90
17284;DHT22;8760;52.248;20.952;2022-09-09T02:50:41;12.30;99.90
17284;DHT22;8760;52.248;20.952;2022-09-09T02:53:15;12.30;99.90
17284;DHT22;8760;52.248;20.952;2022-09-09T02:55:47;12.30;99.90
17284;DHT22;8760;52.248;20.952;2022-09-09T02:58:17;12.30;99.90
17284;DHT22;8760;52.248;20.952;2022-09-09T03:00:46;12.40;99.90
17284;DHT22;8760;52.248;20.952;2022-09-09T03:03:14;12.40;99.90
17284;DHT22;8760;52.248;20.952;2022-09-09T03:05:42;12.40;99.90
17284;DHT22;8760;52.248;20.952;2022-09-09T03:08:09;12.40;99.90
17284;DHT22;8760;52.248;20.952;2022-09-09T03:10:35;12.40;99.90
17284;DHT22;8760;52.248;20.952;2022-09-09T03:13:03;12.40;99.90
17284;DHT22;8760;52.248;20.952;2022-09-09T03:15:31;12.40;99.90
17284;DHT22;8760;52.248;20.952;2022-09-09T03:17:58;12.40;99.90
17284;DHT22;8760;52.248;20.952;2022-09-09T03:20:27;12.40;99.90
17284;DHT22;8760;52.248;20.952;2022-09-09T03:22:55;12.30;99.90
17284;DHT22;8760;52.248;20.952;2022-09-09T03:25:23;12.20;99.90
17284;DHT22;8760;52.248;20.952;2022-09-09T03:27:50;12.30;99.90
17284;DHT22;8760;52.248;20.952;2022-09-09T03:30:18;12.30;99.90
17284;DHT22;8760;52.248;20.952;2022-09-09T03:32:45;12.40;99.90
17284;DHT22;8760;52.248;20.952;2022-09-09T03:35:12;12.40;99.90
17284;DHT22;8760;52.248;20.952;2022-09-09T03:37:40;12.40;99.90
17284;DHT22;8760;52.248;20.952;2022-09-09T03:40:08;12.40;99.90
17284;DHT22;8760;52.248;20.952;2022-09-09T03:42:35;12.40;99.90
17284;DHT22;8760;52.248;20.952;2022-09-09T03:45:03;12.40;99.90
17284;DHT22;8760;52.248;20.952;2022-09-09T03:47:30;12.40;99.90
17284;DHT22;8760;52.248;20.952;2022-09-09T03:49:57;12.40;99.90
17284;DHT22;8760;52.248;20.952;2022-09-09T03:52:23;12.30;99.90
17284;DHT22;8760;52.248;20.952;2022-09-09T03:54:53;12.40;99.90
17284;DHT22;8760;52.248;20.952;2022-09-09T03:57:22;12.40;99.90
17284;DHT22;8760;52.248;20.952;2022-09-09T03:59:48;12.40;99.90
17284;DHT22;8760;52.248;20.952;2022-09-09T04:02:15;12.40;99.90
17284;DHT22;8760;52.248;20.952;2022-09-09T04:04:42;12.40;99.90
17284;DHT22;8760;52.248;20.952;2022-09-09T04:07:09;12.50;99.90
17284;DHT22;8760;52.248;20.952;2022-09-09T04:09:37;12.40;99.90
17284;DHT22;8760;52.248;20.952;2022-09-09T04:12:05;12.40;99.90
17284;DHT22;8760;52.248;20.952;2022-09-09T04:14:32;12.40;99.90
17284;DHT22;8760;52.248;20.952;2022-09-09T04:16:59;12.40;99.90
17284;DHT22;8760;52.248;20.952;2022-09-09T04:19:26;12.40;99.90
17284;DHT22;8760;52.248;20.952;2022-09-09T04:21:52;12.50;99.90
17284;DHT22;8760;52.248;20.952;2022-09-09T04:24:19;12.50;99.90
17284;DHT22;8760;52.248;20.952;2022-09-09T04:26:47;12.40;99.90
17284;DHT22;8760;52.248;20.952;2022-09-09T04:29:15;12.50;99.90
17284;DHT22;8760;52.248;20.952;2022-09-09T04:31:41;12.60;99.90
17284;DHT22;8760;52.248;20.952;2022-09-09T04:34:08;12.40;99.90
17284;DHT22;8760;52.248;20.952;2022-09-09T04:36:35;12.50;99.90
17284;DHT22;8760;52.248;20.952;2022-09-09T04:39:02;12.40;99.90
17284;DHT22;8760;52.248;20.952;2022-09-09T04:41:29;12.50;99.90
17284;DHT22;8760;52.248;20.952;2022-09-09T04:43:56;12.50;99.90
17284;DHT22;8760;52.248;20.952;2022-09-09T04:46:25;12.60;99.90
17284;DHT22;8760;52.248;20.952;2022-09-09T04:48:52;12.60;99.90
17284;DHT22;8760;52.248;20.952;2022-09-09T04:51:20;12.60;99.90
17284;DHT22;8760;52.248;20.952;2022-09-09T04:53:47;12.60;99.90
17284;DHT22;8760;52.248;20.952;2022-09-09T04:56:16;12.60;99.90
17284;DHT22;8760;52.248;20.952;2022-09-09T04:58:43;12.60;99.90
17284;DHT22;8760;52.248;20.952;2022-09-09T05:01:13;12.60;99.90
17284;DHT22;8760;52.248;20.952;2022-09-09T05:03:41;12.60;99.90
17284;DHT22;8760;52.248;20.952;2022-09-09T05:06:12;12.60;99.90
17284;DHT22;8760;52.248;20.952;2022-09-09T05:08:41;12.70;99.90
17284;DHT22;8760;52.248;20.952;2022-09-09T05:11:14;12.70;99.90
17284;DHT22;8760;52.248;20.952;2022-09-09T05:13:41;12.70;99.90
17284;DHT22;8760;52.248;20.952;2022-09-09T05:16:08;12.60;99.90
17284;DHT22;8760;52.248;20.952;2022-09-09T05:18:36;12.60;99.90
17284;DHT22;8760;52.248;20.952;2022-09-09T05:21:05;12.60;99.90
17284;DHT22;8760;52.248;20.952;2022-09-09T05:23:32;12.60;99.90
17284;DHT22;8760;52.248;20.952;2022-09-09T05:25:59;12.60;99.90
17284;DHT22;8760;52.248;20.952;2022-09-09T05:28:27;12.60;99.90
17284;DHT22;8760;52.248;20.952;2022-09-09T05:30:58;12.60;99.90
17284;DHT22;8760;52.248;20.952;2022-09-09T05:33:26;12.70;99.90
17284;DHT22;8760;52.248;20.952;2022-09-09T05:35:57;12.70;99.90
17284;DHT22;8760;52.248;20.952;2022-09-09T05:38:25;12.70;99.90
17284;DHT22;8760;52.248;20.952;2022-09-09T05:40:53;12.60;99.90
17284;DHT22;8760;52.248;20.952;2022-09-09T05:43:19;12.70;99.90
17284;DHT22;8760;52.248;20.952;2022-09-09T05:45:46;12.70;99.90
17284;DHT22;8760;52.248;20.952;2022-09-09T05:48:14;12.70;99.90
17284;DHT22;8760;52.248;20.952;2022-09-09T05:50:41;12.70;99.90
17284;DHT22;8760;52.248;20.952;2022-09-09T05:53:08;12.80;99.90
17284;DHT22;8760;52.248;20.952;2022-09-09T05:55:36;12.80;99.90
17284;DHT22;8760;52.248;20.952;2022-09-09T05:58:03;12.80;99.90
17284;DHT22;8760;52.248;20.952;2022-09-09T06:00:30;12.80;99.90
17284;DHT22;8760;52.248;20.952;2022-09-09T06:02:58;12.80;99.90
17284;DHT22;8760;52.248;20.952;2022-09-09T06:05:25;12.80;99.90
17284;DHT22;8760;52.248;20.952;2022-09-09T06:07:54;12.90;99.90
17284;DHT22;8760;52.248;20.952;2022-09-09T06:10:21;12.90;99.90
17284;DHT22;8760;52.248;20.952;2022-09-09T06:12:52;12.90;99.90
17284;DHT22;8760;52.248;20.952;2022-09-09T06:15:20;12.90;99.90
17284;DHT22;8760;52.248;20.952;2022-09-09T06:17:47;12.90;99.90
17284;DHT22;8760;52.248;20.952;2022-09-09T06:20:14;13.00;99.90
17284;DHT22;8760;52.248;20.952;2022-09-09T06:22:41;12.90;99.90
17284;DHT22;8760;52.248;20.952;2022-09-09T06:25:08;13.00;99.90
17284;DHT22;8760;52.248;20.952;2022-09-09T06:27:36;13.00;99.90
17284;DHT22;8760;52.248;20.952;2022-09-09T06:30:05;13.00;99.90
17284;DHT22;8760;52.248;20.952;2022-09-09T06:32:33;13.10;99.90
17284;DHT22;8760;52.248;20.952;2022-09-09T06:35:02;13.10;99.90
17284;DHT22;8760;52.248;20.952;2022-09-09T06:37:29;13.20;99.90
17284;DHT22;8760;52.248;20.952;2022-09-09T06:39:55;13.20;99.90
17284;DHT22;8760;52.248;20.952;2022-09-09T06:42:22;13.20;99.90
17284;DHT22;8760;52.248;20.952;2022-09-09T06:44:49;13.20;99.90
17284;DHT22;8760;52.248;20.952;2022-09-09T06:47:17;13.20;99.90
17284;DHT22;8760;52.248;20.952;2022-09-09T06:49:44;13.30;99.90
17284;DHT22;8760;52.248;20.952;2022-09-09T06:52:10;13.20;99.90
17284;DHT22;8760;52.248;20.952;2022-09-09T06:54:37;13.30;99.90
17284;DHT22;8760;52.248;20.952;2022-09-09T06:57:04;13.30;99.90
17284;DHT22;8760;52.248;20.952;2022-09-09T06:59:32;13.30;99.90
17284;DHT22;8760;52.248;20.952;2022-09-09T07:01:59;13.30;99.90
17284;DHT22;8760;52.248;20.952;2022-09-09T07:04:28;13.30;99.90
17284;DHT22;8760;52.248;20.952;2022-09-09T07:06:54;13.30;99.90
17284;DHT22;8760;52.248;20.952;2022-09-09T07:09:21;13.40;99.90
17284;DHT22;8760;52.248;20.952;2022-09-09T07:11:50;13.30;99.90
17284;DHT22;8760;52.248;20.952;2022-09-09T07:14:18;13.30;99.90
17284;DHT22;8760;52.248;20.952;2022-09-09T07:16:45;13.30;99.90
17284;DHT22;8760;52.248;20.952;2022-09-09T07:19:13;13.40;99.90
17284;DHT22;8760;52.248;20.952;2022-09-09T07:21:42;13.40;99.90
17284;DHT22;8760;52.248;20.952;2022-09-09T07:24:09;13.40;99.90
17284;DHT22;8760;52.248;20.952;2022-09-09T07:26:37;13.40;99.90
17284;DHT22;8760;52.248;20.952;2022-09-09T07:29:05;13.50;99.90
17284;DHT22;8760;52.248;20.952;2022-09-09T07:31:34;13.50;99.90
17284;DHT22;8760;52.248;20.952;2022-09-09T07:34:02;13.50;99.90
17284;DHT22;8760;52.248;20.952;2022-09-09T07:36:31;13.50;99.90
17284;DHT22;8760;52.248;20.952;2022-09-09T07:39:00;13.50;99.90
17284;DHT22;8760;52.248;20.952;2022-09-09T07:41:29;13.60;99.90
17284;DHT22;8760;52.248;20.952;2022-09-09T07:43:58;13.60;99.90
17284;DHT22;8760;52.248;20.952;2022-09-09T07:46:26;13.60;99.90
17284;DHT22;8760;52.248;20.952;2022-09-09T07:48:55;13.60;99.90
17284;DHT22;8760;52.248;20.952;2022-09-09T07:51:24;13.70;99.90
17284;DHT22;8760;52.248;20.952;2022-09-09T07:53:53;13.80;99.90
17284;DHT22;8760;52.248;20.952;2022-09-09T07:56:21;13.80;99.90
17284;DHT22;8760;52.248;20.952;2022-09-09T07:58:50;13.80;99.90
17284;DHT22;8760;52.248;20.952;2022-09-09T08:01:19;13.80;99.90
17284;DHT22;8760;52.248;20.952;2022-09-09T08:03:52;13.70;99.90
17284;DHT22;8760;52.248;20.952;2022-09-09T08:06:19;13.80;99.90
17284;DHT22;8760;52.248;20.952;2022-09-09T08:08:50;13.80;99.90
17284;DHT22;8760;52.248;20.952;2022-09-09T08:11:17;13.80;99.90
17284;DHT22;8760;52.248;20.952;2022-09-09T08:13:45;13.80;99.90
17284;DHT22;8760;52.248;20.952;2022-09-09T08:16:14;13.80;99.90
17284;DHT22;8760;52.248;20.952;2022-09-09T08:18:42;13.70;99.90
17284;DHT22;8760;52.248;20.952;2022-09-09T08:21:11;13.80;99.90
17284;DHT22;8760;52.248;20.952;2022-09-09T08:23:39;13.80;99.90
17284;DHT22;8760;52.248;20.952;2022-09-09T08:26:08;13.80;99.90
17284;DHT22;8760;52.248;20.952;2022-09-09T08:28:36;13.80;99.90
17284;DHT22;8760;52.248;20.952;2022-09-09T08:31:09;13.80;99.90
17284;DHT22;8760;52.248;20.952;2022-09-09T08:33:37;13.90;99.90
17284;DHT22;8760;52.248;20.952;2022-09-09T08:36:06;13.90;99.90
17284;DHT22;8760;52.248;20.952;2022-09-09T08:38:34;13.90;99.90
17284;DHT22;8760;52.248;20.952;2022-09-09T08:41:12;13.90;99.90
17284;DHT22;8760;52.248;20.952;2022-09-09T08:43:46;13.90;99.90
17284;DHT22;8760;52.248;20.952;2022-09-09T08:46:19;13.90;99.90
17284;DHT22;8760;52.248;20.952;2022-09-09T08:48:54;13.80;99.90
17284;DHT22;8760;52.248;20.952;2022-09-09T08:51:25;13.80;99.90
17284;DHT22;8760;52.248;20.952;2022-09-09T08:53:54;13.80;99.90
17284;DHT22;8760;52.248;20.952;2022-09-09T08:56:24;13.80;99.90
17284;DHT22;8760;52.248;20.952;2022-09-09T08:58:53;13.80;99.90
17284;DHT22;8760;52.248;20.952;2022-09-09T09:04:38;13.90;99.90
17284;DHT22;8760;52.248;20.952;2022-09-09T09:07:17;13.90;99.90
17284;DHT22;8760;52.248;20.952;2022-09-09T09:09:53;14.00;99.90
17284;DHT22;8760;52.248;20.952;2022-09-09T09:12:26;14.00;99.90
17284;DHT22;8760;52.248;20.952;2022-09-09T09:14:54;14.10;99.90
17284;DHT22;8760;52.248;20.952;2022-09-09T09:17:26;14.10;99.90
17284;DHT22;8760;52.248;20.952;2022-09-09T09:19:57;14.10;99.90
17284;DHT22;8760;52.248;20.952;2022-09-09T09:22:32;14.10;99.90
17284;DHT22;8760;52.248;20.952;2022-09-09T09:25:05;14.20;99.90
17284;DHT22;8760;52.248;20.952;2022-09-09T09:27:43;14.10;99.90
17284;DHT22;8760;52.248;20.952;2022-09-09T09:30:16;14.10;99.90
17284;DHT22;8760;52.248;20.952;2022-09-09T09:32:52;14.10;99.90
17284;DHT22;8760;52.248;20.952;2022-09-09T09:35:19;14.10;99.90
17284;DHT22;8760;52.248;20.952;2022-09-09T09:37:47;14.20;99.90
17284;DHT22;8760;52.248;20.952;2022-09-09T09:40:17;14.20;99.90
17284;DHT22;8760;52.248;20.952;2022-09-09T09:42:52;14.20;99.90
17284;DHT22;8760;52.248;20.952;2022-09-09T09:45:27;14.20;99.90
17284;DHT22;8760;52.248;20.952;2022-09-09T09:48:00;14.20;99.90
17284;DHT22;8760;52.248;20.952;2022-09-09T09:50:27;14.30;99.90
17284;DHT22;8760;52.248;20.952;2022-09-09T09:52:56;14.30;99.90
17284;DHT22;8760;52.248;20.952;2022-09-09T09:55:23;14.30;99.90
17284;DHT22;8760;52.248;20.952;2022-09-09T09:57:51;14.30;99.90
17284;DHT22;8760;52.248;20.952;2022-09-09T10:00:20;14.30;99.90
17284;DHT22;8760;52.248;20.952;2022-09-09T10:02:47;14.30;99.90
17284;DHT22;8760;52.248;20.952;2022-09-09T10:05:17;14.30;99.90
17284;DHT22;8760;52.248;20.952;2022-09-09T10:07:45;14.40;99.90
17284;DHT22;8760;52.248;20.952;2022-09-09T10:10:17;14.40;99.90
17284;DHT22;8760;52.248;20.952;2022-09-09T10:12:56;14.50;99.90
17284;DHT22;8760;52.248;20.952;2022-09-09T10:15:35;14.50;99.90
17284;DHT22;8760;52.248;20.952;2022-09-09T10:18:20;14.50;99.90
17284;DHT22;8760;52.248;20.952;2022-09-09T10:20:56;14.50;99.90
17284;DHT22;8760;52.248;20.952;2022-09-09T10:23:36;14.50;99.90
17284;DHT22;8760;52.248;20.952;2022-09-09T10:26:16;14.50;99.90
17284;DHT22;8760;52.248;20.952;2022-09-09T10:29:00;14.60;99.90
17284;DHT22;8760;52.248;20.952;2022-09-09T10:31:36;14.60;99.90
17284;DHT22;8760;52.248;20.952;2022-09-09T10:34:12;14.60;99.90
17284;DHT22;8760;52.248;20.952;2022-09-09T10:36:47;14.60;99.90
17284;DHT22;8760;52.248;20.952;2022-09-09T10:39:22;14.60;99.90
17284;DHT22;8760;52.248;20.952;2022-09-09T10:41:59;14.60;99.90
17284;DHT22;8760;52.248;20.952;2022-09-09T10:47:49;14.60;99.90
17284;DHT22;8760;52.248;20.952;2022-09-09T10:53:26;14.60;99.90
17284;DHT22;8760;52.248;20.952;2022-09-09T10:55:59;14.70;99.90
17284;DHT22;8760;52.248;20.952;2022-09-09T10:58:31;14.70;99.90
17284;DHT22;8760;52.248;20.952;2022-09-09T11:01:02;14.70;99.90
17284;DHT22;8760;52.248;20.952;2022-09-09T11:03:38;14.80;99.90
17284;DHT22;8760;52.248;20.952;2022-09-09T11:06:09;14.80;99.90
17284;DHT22;8760;52.248;20.952;2022-09-09T11:08:39;14.70;99.90
17284;DHT22;8760;52.248;20.952;2022-09-09T11:11:10;14.70;99.90
17284;DHT22;8760;52.248;20.952;2022-09-09T11:13:43;14.80;99.90
17284;DHT22;8760;52.248;20.952;2022-09-09T11:16:20;14.70;99.90
17284;DHT22;8760;52.248;20.952;2022-09-09T11:18:49;14.60;99.90
17284;DHT22;8760;52.248;20.952;2022-09-09T11:21:22;14.60;99.90
17284;DHT22;8760;52.248;20.952;2022-09-09T11:23:55;14.70;99.90
17284;DHT22;8760;52.248;20.952;2022-09-09T11:26:30;14.70;99.90
17284;DHT22;8760;52.248;20.952;2022-09-09T11:29:09;14.70;99.90
17284;DHT22;8760;52.248;20.952;2022-09-09T11:31:45;14.70;99.90
17284;DHT22;8760;52.248;20.952;2022-09-09T11:34:30;14.80;99.90
17284;DHT22;8760;52.248;20.952;2022-09-09T11:37:10;14.90;99.90
17284;DHT22;8760;52.248;20.952;2022-09-09T11:40:04;14.90;99.90
17284;DHT22;8760;52.248;20.952;2022-09-09T11:42:34;14.90;99.90
17284;DHT22;8760;52.248;20.952;2022-09-09T11:45:09;14.90;99.90
17284;DHT22;8760;52.248;20.952;2022-09-09T11:47:38;14.90;99.90
17284;DHT22;8760;52.248;20.952;2022-09-09T11:50:10;14.90;99.90
17284;DHT22;8760;52.248;20.952;2022-09-09T11:52:40;14.90;99.90
17284;DHT22;8760;52.248;20.952;2022-09-09T11:55:11;14.80;99.90
17284;DHT22;8760;52.248;20.952;2022-09-09T11:57:39;14.70;99.90
17284;DHT22;8760;52.248;20.952;2022-09-09T12:02:49;14.70;99.90
17284;DHT22;8760;52.248;20.952;2022-09-09T12:05:16;14.70;99.90
17284;DHT22;8760;52.248;20.952;2022-09-09T12:07:50;14.70;99.90
17284;DHT22;8760;52.248;20.952;2022-09-09T12:10:23;14.80;99.90
17284;DHT22;8760;52.248;20.952;2022-09-09T12:12:52;14.80;99.90
17284;DHT22;8760;52.248;20.952;2022-09-09T12:15:26;14.90;99.90
17284;DHT22;8760;52.248;20.952;2022-09-09T12:17:56;15.00;99.90
17284;DHT22;8760;52.248;20.952;2022-09-09T12:20:30;15.00;99.90
17284;DHT22;8760;52.248;20.952;2022-09-09T12:23:27;15.10;99.90
17284;DHT22;8760;52.248;20.952;2022-09-09T12:26:08;15.10;99.90
17284;DHT22;8760;52.248;20.952;2022-09-09T12:28:47;15.10;99.90
17284;DHT22;8760;52.248;20.952;2022-09-09T12:31:21;15.20;99.90
17284;DHT22;8760;52.248;20.952;2022-09-09T12:33:50;15.10;99.90
17284;DHT22;8760;52.248;20.952;2022-09-09T12:36:21;15.10;99.90
17284;DHT22;8760;52.248;20.952;2022-09-09T12:38:49;15.10;99.90
17284;DHT22;8760;52.248;20.952;2022-09-09T12:41:23;15.10;99.90
17284;DHT22;8760;52.248;20.952;2022-09-09T12:43:51;15.20;99.90
17284;DHT22;8760;52.248;20.952;2022-09-09T12:46:24;15.30;99.90
17284;DHT22;8760;52.248;20.952;2022-09-09T12:48:54;15.40;99.90
17284;DHT22;8760;52.248;20.952;2022-09-09T12:51:25;15.30;99.90
17284;DHT22;8760;52.248;20.952;2022-09-09T12:53:53;15.40;99.90
17284;DHT22;8760;52.248;20.952;2022-09-09T12:56:24;15.40;99.90
17284;DHT22;8760;52.248;20.952;2022-09-09T12:58:53;15.40;99.90
17284;DHT22;8760;52.248;20.952;2022-09-09T13:01:22;15.50;99.90
17284;DHT22;8760;52.248;20.952;2022-09-09T13:03:49;15.40;99.90
17284;DHT22;8760;52.248;20.952;2022-09-09T13:06:21;15.40;99.90
17284;DHT22;8760;52.248;20.952;2022-09-09T13:08:49;15.30;99.90
17284;DHT22;8760;52.248;20.952;2022-09-09T13:11:19;15.30;99.90
17284;DHT22;8760;52.248;20.952;2022-09-09T13:13:52;15.40;99.90
17284;DHT22;8760;52.248;20.952;2022-09-09T13:16:21;15.40;99.90
17284;DHT22;8760;52.248;20.952;2022-09-09T13:18:49;15.40;99.90
17284;DHT22;8760;52.248;20.952;2022-09-09T13:21:17;15.40;99.90
17284;DHT22;8760;52.248;20.952;2022-09-09T13:23:49;15.40;99.90
17284;DHT22;8760;52.248;20.952;2022-09-09T13:26:23;15.40;99.90
17284;DHT22;8760;52.248;20.952;2022-09-09T13:28:53;15.40;99.90
17284;DHT22;8760;52.248;20.952;2022-09-09T13:31:21;15.40;99.90
17284;DHT22;8760;52.248;20.952;2022-09-09T13:33:49;15.40;99.90
17284;DHT22;8760;52.248;20.952;2022-09-09T13:36:15;15.40;99.90
17284;DHT22;8760;52.248;20.952;2022-09-09T13:38:54;15.40;99.90
17284;DHT22;8760;52.248;20.952;2022-09-09T13:41:22;15.40;99.90
17284;DHT22;8760;52.248;20.952;2022-09-09T13:43:51;15.40;99.90
17284;DHT22;8760;52.248;20.952;2022-09-09T13:46:32;15.30;99.90
17284;DHT22;8760;52.248;20.952;2022-09-09T13:49:01;15.40;99.90
17284;DHT22;8760;52.248;20.952;2022-09-09T13:51:33;15.40;99.90
17284;DHT22;8760;52.248;20.952;2022-09-09T13:54:03;15.30;99.90
17284;DHT22;8760;52.248;20.952;2022-09-09T13:56:30;15.20;99.90
17284;DHT22;8760;52.248;20.952;2022-09-09T13:58:58;15.20;99.90
17284;DHT22;8760;52.248;20.952;2022-09-09T14:01:25;15.10;99.90
17284;DHT22;8760;52.248;20.952;2022-09-09T14:03:53;15.00;99.90
17284;DHT22;8760;52.248;20.952;2022-09-09T14:06:20;15.00;99.90
17284;DHT22;8760;52.248;20.952;2022-09-09T14:08:48;14.90;99.90
17284;DHT22;8760;52.248;20.952;2022-09-09T14:11:16;14.90;99.90
17284;DHT22;8760;52.248;20.952;2022-09-09T14:13:44;14.90;99.90
17284;DHT22;8760;52.248;20.952;2022-09-09T14:16:12;14.90;99.90
17284;DHT22;8760;52.248;20.952;2022-09-09T14:18:39;14.90;99.90
17284;DHT22;8760;52.248;20.952;2022-09-09T14:21:06;14.90;99.90
17284;DHT22;8760;52.248;20.952;2022-09-09T14:23:34;14.90;99.90
17284;DHT22;8760;52.248;20.952;2022-09-09T14:26:01;15.00;99.90
17284;DHT22;8760;52.248;20.952;2022-09-09T14:28:28;15.00;99.90
17284;DHT22;8760;52.248;20.952;2022-09-09T14:30:54;15.00;99.90
17284;DHT22;8760;52.248;20.952;2022-09-09T14:33:23;15.10;99.90
17284;DHT22;8760;52.248;20.952;2022-09-09T14:35:55;15.10;99.90
17284;DHT22;8760;52.248;20.952;2022-09-09T14:38:22;15.20;99.90
17284;DHT22;8760;52.248;20.952;2022-09-09T14:40:49;15.30;99.90
17284;DHT22;8760;52.248;20.952;2022-09-09T14:43:16;15.40;99.90
17284;DHT22;8760;52.248;20.952;2022-09-09T14:45:42;15.40;99.90
17284;DHT22;8760;52.248;20.952;2022-09-09T14:48:09;15.40;99.90
17284;DHT22;8760;52.248;20.952;2022-09-09T14:50:37;15.40;99.90
17284;DHT22;8760;52.248;20.952;2022-09-09T14:53:05;15.40;99.90
17284;DHT22;8760;52.248;20.952;2022-09-09T14:55:32;15.50;99.90
17284;DHT22;8760;52.248;20.952;2022-09-09T14:57:59;15.50;99.90
17284;DHT22;8760;52.248;20.952;2022-09-09T15:00:26;15.40;99.90
17284;DHT22;8760;52.248;20.952;2022-09-09T15:02:53;15.50;99.90
17284;DHT22;8760;52.248;20.952;2022-09-09T15:05:20;15.50;99.90
17284;DHT22;8760;52.248;20.952;2022-09-09T15:07:48;15.40;99.90
17284;DHT22;8760;52.248;20.952;2022-09-09T15:10:15;15.30;99.90
17284;DHT22;8760;52.248;20.952;2022-09-09T15:12:43;15.30;99.90
17284;DHT22;8760;52.248;20.952;2022-09-09T15:15:10;15.30;99.90
17284;DHT22;8760;52.248;20.952;2022-09-09T15:17:38;15.20;99.90
17284;DHT22;8760;52.248;20.952;2022-09-09T15:20:06;15.20;99.90
17284;DHT22;8760;52.248;20.952;2022-09-09T15:22:33;15.20;99.90
17284;DHT22;8760;52.248;20.952;2022-09-09T15:25:04;15.20;99.90
17284;DHT22;8760;52.248;20.952;2022-09-09T15:27:31;15.20;99.90
17284;DHT22;8760;52.248;20.952;2022-09-09T15:29:59;15.20;99.90
17284;DHT22;8760;52.248;20.952;2022-09-09T15:32:27;15.30;99.90
17284;DHT22;8760;52.248;20.952;2022-09-09T15:34:53;15.20;99.90
17284;DHT22;8760;52.248;20.952;2022-09-09T15:37:20;15.20;99.90
17284;DHT22;8760;52.248;20.952;2022-09-09T15:39:47;15.20;99.90
17284;DHT22;8760;52.248;20.952;2022-09-09T15:42:15;15.30;99.90
17284;DHT22;8760;52.248;20.952;2022-09-09T15:44:42;15.30;99.90
17284;DHT22;8760;52.248;20.952;2022-09-09T15:47:11;15.30;99.90
17284;DHT22;8760;52.248;20.952;2022-09-09T15:49:39;15.20;99.90
17284;DHT22;8760;52.248;20.952;2022-09-09T15:52:05;15.20;99.90
17284;DHT22;8760;52.248;20.952;2022-09-09T15:54:34;15.20;99.90
17284;DHT22;8760;52.248;20.952;2022-09-09T15:57:03;15.30;99.90
17284;DHT22;8760;52.248;20.952;2022-09-09T15:59:33;15.30;99.90
17284;DHT22;8760;52.248;20.952;2022-09-09T16:02:00;15.30;99.90